Crane Gaia — 3FXX2 — position and weather

sailwx.info

Track history (hours):
 
Tides and Currents Weather Stations Pressure Air Temp Water Temp Dewpoint Dewpoint Depression Visibility Wind Speed Wind Dir Waves Ship Positions

Crane Gaia

Last reported at 2014-Oct-26 16:17 UTC. Time now 2014-Oct-31 12:14 UTC.
Position N 31°12' E 123°16'.

Length 115 m; draft 5.1 m.

Type: Tanker. MMSI: 352461000.

Date/timePositionNaut miles runAvg speedWind from/ knotsBaromVisibWave heightAir tempDewpointWater temp
2014-Oct-26 16:17N 31°12' E 123°16'4913.2
2014-Oct-26 12:33N 30°51' E 122°24'1212.1
2014-Oct-26 11:33N 30°41' E 122°16'10 9.7
2014-Oct-26 10:32N 30°32' E 122°11'1515.0
2014-Oct-26 09:33N 30°31' E 121°54'1514.7
2014-Oct-26 08:33N 30°40' E 121°41'18 0.6
2014-Oct-25 04:33N 30°32' E 121°59'1312.5
2014-Oct-25 03:32N 30°37' E 122°13'4312.7
2014-Oct-25 00:07N 30°59' E 122°56'  
Track history (hours):
 
Tides and Currents Weather Stations Pressure Air Temp Water Temp Dewpoint Dewpoint Depression Visibility Wind Speed Wind Dir Waves Ship Positions

Crane Gaia

Last reported at 2014-Oct-26 16:17 UTC. Time now 2014-Oct-31 12:14 UTC.
Position N 31°12' E 123°16'.

Length 115 m; draft 5.1 m.

Type: Tanker. MMSI: 352461000.

Date/timePositionNaut miles runAvg speedWind from/ knotsBaromVisibWave heightAir tempDewpointWater temp
2014-Oct-26 16:17N 31°12' E 123°16'4913.2
2014-Oct-26 12:33N 30°51' E 122°24'1212.1
2014-Oct-26 11:33N 30°41' E 122°16'10 9.7
2014-Oct-26 10:32N 30°32' E 122°11'1515.0
2014-Oct-26 09:33N 30°31' E 121°54'1514.7
2014-Oct-26 08:33N 30°40' E 121°41'18 0.6
2014-Oct-25 04:33N 30°32' E 121°59'1312.5
2014-Oct-25 03:32N 30°37' E 122°13'4312.7
2014-Oct-25 00:07N 30°59' E 122°56'  

Dump ship's entire track history